Ufa International Airport
UWUU : now visible

Airfield :











YOU CAN JOIN US ON...

 
LOGIN :

Register | Disclaimer

   EN    FR    IT 

 









Legend :    VFR   Marginal VFR   IFR   Intensive IFR   Very Intensive IFR
Visi :
Ceiling :
>= 8 km
>= 3000ft
5 to 8 km
1000 to 3000 ft
1500m to 5 km
500 to 1000 ft
800 to 1500m
200 to 500 ft
< 800m
< 200 ft
Symbols :   Thunderstorms  Fog  Heavy snow  Heavy precipitations  Wind > 20 kt







- Airport Elevation : 449 ft
- IATA code : UFA


UWUU - Ufa International

CURRENT METAR :
  • 190000Z 35011MPS 0900 0700W R32L/P2000N +SN OVC007 M05/M05 Q0991 R32L/491034 TEMPO 35010G16MPS 0500 +SN BLSN VV003 RMK QBB210 QFE731/0975

EXPIRED METARs :
  • 182330Z 35008MPS 1100 R32L/P2000U SN OVC008 M03/M03 Q0990 R32L/491034 TEMPO 35010G16MPS 0500 +SN BLSN VV003 RMK QBB240 QFE730/0974
  • 182300Z 35007MPS 1800 R32L/P2000 SN OVC011 M03/M03 Q0990 R32L/491034 TEMPO 35010G16MPS 0500 +SN BLSN VV003 RMK QFE730/0974
  • 182230Z 36006MPS 4500 -SN OVC011 M03/M03 Q0990 R32L/491036 NOSIG RMK QFE730/0974
  • 182200Z 35006MPS 4500 -SN OVC012 M03/M03 Q0989 R32L/390136 NOSIG RMK QFE730/0973
  • 182130Z 35005MPS 9999 BKN020 M03/M03 Q0989 R32L/690336 NOSIG RMK QFE730/0973

TAF AMD TAF UWUU
Valid from the 19 at 00:00 until the 20 at 00:00 UTC


190003Z 1900/1924 34009G14MPS 0800 +SN BLSN OVC006
TEMPO 1900/1906 36012G18MPS 0400 +SHSN BLSN VV003
FM190600 34008G14MPS 3100 -SN OVC011
TEMPO 1906/1912 1000 SN BLSN VV005
TEMPO 1915/1924 30005G10MPS
UWUU FIR / Europe



MET'MAP, your aeronautical weather chart ! - Copyright ORBIFLY December 2007 - Disclaimer

ORBIFLY MET'MAP TEAM :

Programming & Development : Alexandra Zaïnal
Concept & Development : Baudouin d'Aumeries
Co-Development & Prog : Marc-Olivier Méhu
Technical & hardware support : Manuel Goepfert

Contact : metmap@orbifly.com




SOURCES & CREDITS :

   NOAA       Earth
Advisory